createdAt,value
2023-07-05T00:04:27.018Z,24.70
2023-07-05T00:09:30.899Z,25.00
2023-07-05T00:14:34.745Z,23.70
2023-07-05T00:19:38.486Z,23.00
2023-07-05T00:24:42.333Z,21.70
2023-07-05T00:29:46.211Z,24.20
2023-07-05T00:34:50.087Z,24.70
2023-07-05T00:39:54.003Z,21.10
2023-07-05T00:45:13.261Z,24.60
2023-07-05T00:50:26.302Z,23.10
2023-07-05T00:55:30.462Z,27.30
2023-07-05T01:00:34.335Z,25.10
2023-07-05T01:05:39.019Z,23.90
2023-07-05T01:10:48.700Z,26.40
2023-07-05T01:16:23.638Z,24.20
2023-07-05T01:21:49.769Z,28.40
2023-07-05T01:27:11.688Z,27.20
2023-07-05T01:37:29.919Z,27.50
2023-07-05T01:42:35.734Z,24.70
2023-07-05T01:47:54.666Z,25.10
2023-07-05T01:53:09.222Z,26.90
2023-07-05T01:58:16.535Z,31.70
2023-07-05T02:03:23.683Z,27.90
2023-07-05T02:08:31.236Z,28.70
2023-07-05T02:13:35.071Z,25.70
2023-07-05T02:18:41.293Z,29.50
2023-07-05T02:23:45.427Z,25.90
2023-07-05T02:28:50.543Z,30.20
2023-07-05T02:33:54.904Z,29.30
2023-07-05T02:39:00.940Z,28.20
2023-07-05T02:44:05.321Z,28.40
2023-07-05T02:49:10.160Z,30.60
2023-07-05T02:54:14.507Z,32.10
2023-07-05T02:59:18.521Z,31.20
2023-07-05T03:04:22.499Z,32.80
2023-07-05T03:09:26.420Z,28.90
2023-07-05T03:14:30.328Z,27.10
2023-07-05T03:19:34.456Z,27.70
2023-07-05T03:24:38.512Z,29.30
2023-07-05T03:29:42.399Z,26.30
2023-07-05T03:34:46.328Z,32.30
2023-07-05T03:39:54.453Z,25.60
2023-07-05T03:44:58.437Z,26.20
2023-07-05T03:50:02.331Z,28.40
2023-07-05T03:55:07.291Z,31.80
2023-07-05T04:00:12.064Z,28.90
2023-07-05T04:05:20.260Z,26.80
2023-07-05T04:10:26.905Z,31.40
2023-07-05T04:15:30.718Z,31.00
2023-07-05T04:20:34.566Z,23.00
2023-07-05T04:25:38.440Z,30.20
2023-07-05T04:30:42.250Z,25.20
2023-07-05T04:35:54.316Z,26.60
2023-07-05T04:40:59.707Z,24.60
2023-07-05T04:46:03.740Z,28.80
2023-07-05T04:51:07.681Z,28.00
2023-07-05T04:56:14.001Z,23.90
2023-07-05T05:01:19.837Z,25.40
2023-07-05T05:06:24.116Z,28.80
2023-07-05T05:11:30.595Z,25.80
2023-07-05T05:16:34.503Z,23.70
2023-07-05T05:21:38.910Z,26.30
2023-07-05T05:26:42.750Z,27.20
2023-07-05T05:31:46.520Z,28.80
2023-07-05T05:36:51.838Z,25.40
2023-07-05T05:41:55.684Z,25.90
2023-07-05T05:46:59.549Z,25.30
2023-07-05T05:52:03.617Z,28.20
2023-07-05T05:57:08.234Z,26.90
2023-07-05T06:02:12.364Z,25.80
2023-07-05T06:07:19.997Z,31.50
2023-07-05T06:12:24.614Z,27.10
2023-07-05T06:17:28.445Z,25.10
2023-07-05T06:22:33.916Z,27.80
2023-07-05T06:27:38.669Z,26.40
2023-07-05T06:32:45.101Z,28.50
2023-07-05T06:37:48.973Z,26.50
2023-07-05T06:42:53.864Z,24.20
2023-07-05T06:47:59.043Z,25.80
2023-07-05T06:53:23.201Z,23.00
2023-07-05T06:58:33.693Z,27.10
2023-07-05T07:03:37.911Z,22.80
2023-07-05T07:08:41.786Z,22.00
2023-07-05T07:13:45.721Z,24.30
2023-07-05T07:18:51.496Z,22.30
2023-07-05T07:23:55.267Z,20.70
2023-07-05T07:28:59.161Z,21.60
2023-07-05T07:34:04.862Z,21.00
2023-07-05T07:39:09.697Z,17.90
2023-07-05T07:44:14.617Z,18.90
2023-07-05T07:49:18.618Z,16.90
2023-07-05T07:54:27.427Z,20.10
2023-07-05T07:59:31.234Z,14.90
2023-07-05T08:04:35.201Z,16.80
2023-07-05T08:09:39.350Z,17.00
2023-07-05T08:14:43.132Z,18.40
2023-07-05T08:19:48.627Z,18.30
2023-07-05T08:24:53.131Z,18.00
2023-07-05T08:29:57.090Z,18.50
2023-07-05T08:35:00.878Z,15.50
2023-07-05T08:40:08.916Z,16.40
2023-07-05T08:45:12.910Z,11.30
2023-07-05T08:50:28.974Z,14.40
2023-07-05T08:55:55.601Z,12.00
2023-07-05T09:01:11.629Z,15.20
2023-07-05T09:06:23.218Z,12.10
2023-07-05T09:11:59.005Z,17.90
2023-07-05T09:17:10.485Z,11.10
2023-07-05T09:22:20.837Z,11.20
2023-07-05T09:27:28.725Z,10.80
2023-07-05T09:32:37.076Z,11.10
2023-07-05T09:37:45.515Z,9.20
2023-07-05T09:43:03.638Z,9.50
2023-07-05T09:48:12.509Z,8.20
2023-07-05T09:53:34.817Z,10.40
2023-07-05T09:58:40.116Z,13.80
2023-07-05T10:03:55.726Z,7.50
2023-07-05T10:09:12.438Z,8.50
2023-07-05T10:14:18.946Z,7.90
2023-07-05T10:19:32.319Z,9.70
2023-07-05T10:24:47.900Z,6.00
2023-07-05T10:29:59.181Z,8.60
2023-07-05T10:35:03.458Z,8.90
2023-07-05T10:40:11.110Z,9.30
2023-07-05T10:45:16.601Z,11.80
2023-07-05T10:50:35.129Z,7.80
2023-07-05T10:56:07.208Z,6.70
2023-07-05T11:01:19.858Z,7.00
2023-07-05T11:06:24.876Z,8.30
2023-07-05T11:11:32.121Z,6.30
2023-07-05T11:16:36.226Z,6.80
2023-07-05T11:21:46.305Z,8.30
2023-07-05T11:26:50.264Z,8.10
2023-07-05T11:32:14.244Z,7.40
2023-07-05T11:37:18.020Z,8.90
2023-07-05T11:42:22.916Z,7.50
2023-07-05T11:47:26.730Z,6.40
2023-07-05T11:52:33.932Z,7.70
2023-07-05T11:57:46.356Z,10.30
2023-07-05T12:03:01.568Z,4.60
2023-07-05T12:08:14.666Z,8.10
2023-07-05T12:13:26.404Z,10.10
2023-07-05T12:18:32.498Z,10.90
2023-07-05T12:23:37.733Z,13.20
2023-07-05T12:28:44.256Z,6.70
2023-07-05T12:33:56.551Z,10.40
2023-07-05T12:39:09.157Z,7.70
2023-07-05T12:44:20.258Z,12.00
2023-07-05T12:49:30.244Z,6.40
2023-07-05T12:54:43.083Z,6.30
2023-07-05T13:00:04.948Z,9.00
2023-07-05T13:05:21.882Z,12.80
2023-07-05T13:10:30.361Z,13.50
2023-07-05T13:15:38.837Z,7.40
2023-07-05T13:20:50.438Z,5.90
2023-07-05T13:25:54.471Z,5.20
2023-07-05T13:31:04.750Z,6.30
2023-07-05T13:36:09.524Z,8.20
2023-07-05T13:41:13.340Z,6.50
2023-07-05T13:46:17.641Z,9.10
2023-07-05T13:51:30.528Z,6.10
2023-07-05T13:56:37.607Z,5.60
2023-07-05T14:01:49.523Z,6.70
2023-07-05T14:06:54.867Z,6.10
2023-07-05T14:12:00.872Z,16.30
2023-07-05T14:17:05.675Z,10.30
2023-07-05T14:22:20.677Z,5.50
2023-07-05T14:27:25.719Z,6.50
2023-07-05T14:32:29.697Z,8.10
2023-07-05T14:37:36.866Z,5.60
2023-07-05T14:42:41.448Z,6.30
2023-07-05T14:47:52.708Z,6.60
2023-07-05T14:52:58.741Z,5.40
2023-07-05T14:58:03.230Z,6.90
2023-07-05T15:03:10.234Z,5.30
2023-07-05T15:08:15.379Z,7.00
2023-07-05T15:13:22.299Z,8.90
2023-07-05T15:18:26.110Z,8.90
2023-07-05T15:23:37.049Z,5.10
2023-07-05T15:28:41.821Z,7.70
2023-07-05T15:33:45.863Z,6.10
2023-07-05T15:38:50.549Z,5.60
2023-07-05T15:43:54.397Z,7.50
2023-07-05T15:48:58.554Z,12.30
2023-07-05T15:54:03.275Z,7.30
2023-07-05T15:59:14.181Z,11.00
2023-07-05T16:04:18.001Z,8.60
2023-07-05T16:09:22.258Z,5.10
2023-07-05T16:14:30.152Z,5.50
2023-07-05T16:19:40.572Z,5.40
2023-07-05T16:24:46.577Z,5.60
2023-07-05T16:29:53.983Z,5.50
2023-07-05T16:34:58.094Z,6.10
2023-07-05T16:40:05.562Z,7.30
2023-07-05T16:45:13.860Z,6.90
2023-07-05T16:50:18.426Z,7.10
2023-07-05T16:55:23.282Z,6.60
2023-07-05T17:00:30.358Z,6.40
2023-07-05T17:05:35.596Z,6.40
2023-07-05T17:10:40.064Z,6.00
2023-07-05T17:15:44.493Z,9.70
2023-07-05T17:21:00.549Z,9.20
2023-07-05T17:26:11.885Z,6.30
2023-07-05T17:31:22.552Z,7.40
2023-07-05T17:36:28.621Z,6.00
2023-07-05T17:41:33.822Z,9.30
2023-07-05T17:46:44.720Z,6.70
2023-07-05T17:51:49.361Z,7.10
2023-07-05T17:56:53.342Z,11.00
2023-07-05T18:01:57.983Z,5.20
2023-07-05T18:07:03.070Z,7.20
2023-07-05T18:12:07.996Z,8.60
2023-07-05T18:17:12.855Z,12.30
2023-07-05T18:22:17.725Z,6.10
2023-07-05T18:27:22.359Z,7.20
2023-07-05T18:32:26.779Z,4.40
2023-07-05T18:37:32.644Z,8.50
2023-07-05T18:42:37.152Z,5.10
2023-07-05T18:47:42.109Z,4.50
2023-07-05T18:52:46.875Z,6.80
2023-07-05T18:57:51.306Z,5.60
2023-07-05T19:02:55.885Z,6.40
2023-07-05T19:08:00.433Z,4.50
2023-07-05T19:13:04.798Z,6.70
2023-07-05T19:18:10.060Z,7.00
2023-07-05T19:23:15.749Z,6.90
2023-07-05T19:28:19.672Z,4.30
2023-07-05T19:33:23.745Z,5.20
2023-07-05T19:38:28.025Z,4.40
2023-07-05T19:43:34.179Z,7.00
2023-07-05T19:48:38.825Z,7.00
2023-07-05T19:53:46.320Z,4.60
2023-07-05T19:58:51.378Z,8.70
2023-07-05T20:03:56.253Z,7.70
2023-07-05T20:09:05.223Z,11.30
2023-07-05T20:14:10.869Z,8.10
2023-07-05T20:19:16.098Z,7.50
2023-07-05T20:24:20.855Z,9.20
2023-07-05T20:29:25.135Z,7.40
2023-07-05T20:34:29.436Z,7.70
2023-07-05T20:39:33.161Z,8.70
2023-07-05T20:44:37.082Z,6.60
2023-07-05T20:49:40.918Z,5.50
2023-07-05T20:54:51.157Z,9.40
2023-07-05T20:59:56.058Z,10.00
2023-07-05T21:04:59.801Z,11.50
2023-07-05T21:10:03.657Z,6.90
2023-07-05T21:15:08.843Z,9.20
2023-07-05T21:20:13.318Z,8.00
2023-07-05T21:25:17.606Z,9.00
2023-07-05T21:30:21.309Z,9.10
2023-07-05T21:35:31.113Z,7.40
2023-07-05T21:40:38.455Z,14.90
2023-07-05T21:45:46.636Z,7.10
2023-07-05T21:50:51.779Z,7.00
2023-07-05T21:56:03.620Z,7.70
2023-07-05T22:01:09.763Z,7.50
2023-07-05T22:06:13.719Z,8.10
2023-07-05T22:11:17.685Z,9.50
2023-07-05T22:16:21.753Z,9.60
2023-07-05T22:21:26.503Z,8.70
2023-07-05T22:26:30.301Z,8.80
2023-07-05T22:31:35.087Z,8.30
2023-07-05T22:36:39.753Z,9.80
2023-07-05T22:41:43.403Z,7.90
2023-07-05T22:46:47.194Z,9.60
2023-07-05T22:51:53.207Z,8.70
2023-07-05T22:56:58.394Z,9.30
2023-07-05T23:02:05.184Z,8.80
2023-07-05T23:07:09.420Z,11.80
2023-07-05T23:12:13.349Z,10.10
2023-07-05T23:17:17.194Z,10.90
2023-07-05T23:22:21.074Z,8.30
2023-07-05T23:27:24.900Z,8.70
2023-07-05T23:32:29.924Z,6.50
2023-07-05T23:37:33.698Z,6.60
2023-07-05T23:42:38.789Z,9.90
2023-07-05T23:47:42.902Z,8.90
2023-07-05T23:52:46.801Z,8.40
2023-07-05T23:57:50.580Z,9.60
